Time;durP1;ratioP1;P1;durP2;ratioP2;P2;SDS_P1;SDS_P2;PMS_P1;PMS_P2;Temp;Humidity;BMP_temperature;BMP_pressure;BME280_temperature;BME280_humidity;BME280_pressure;Samples;Min_cycle;Max_cycle;Signal;HPM_P1;HPM_P2
2022/06/21 00:02:03;;;;;;;5.18;2.78;;;12.10;99.90;;;;;;4966857;28;20023;-65
2022/06/21 00:04:30;;;;;;;5.15;3.03;;;12.20;99.90;;;;;;4965716;28;20105;-67
2022/06/21 00:07:02;;;;;;;8.32;6.03;;;12.30;99.90;;;;;;4947870;28;20086;-66
2022/06/21 00:09:30;;;;;;;14.70;9.77;;;12.40;99.90;;;;;;4965463;28;20026;-63
2022/06/21 00:11:57;;;;;;;6.28;5.53;;;12.60;99.90;;;;;;4968622;28;20027;-65
2022/06/21 00:14:24;;;;;;;10.00;6.50;;;12.70;99.90;;;;;;4967034;28;20029;-68
2022/06/21 00:16:51;;;;;;;7.18;5.38;;;12.80;99.90;;;;;;4964466;28;20539;-65
2022/06/21 00:19:25;;;;;;;6.05;4.45;;;12.80;99.90;;;;;;4966009;28;20039;-65
2022/06/21 00:21:52;;;;;;;6.03;3.83;;;13.00;99.90;;;;;;4966553;28;20025;-66
2022/06/21 00:24:19;;;;;;;5.47;3.65;;;13.20;99.90;;;;;;4967385;28;20695;-66
2022/06/21 00:26:47;;;;;;;5.20;4.07;;;13.20;99.90;;;;;;4967882;28;20135;-66
2022/06/21 00:29:15;;;;;;;7.97;4.63;;;13.40;99.90;;;;;;4965956;28;20069;-67
2022/06/21 00:31:47;;;;;;;5.70;4.18;;;13.60;99.90;;;;;;4964438;28;20484;-67
2022/06/21 00:34:22;;;;;;;5.45;4.60;;;13.80;99.90;;;;;;4967601;28;20027;-67
2022/06/21 00:36:50;;;;;;;5.38;3.40;;;14.10;99.90;;;;;;4961399;28;20683;-66
2022/06/21 00:39:19;;;;;;;5.65;3.22;;;14.40;99.90;;;;;;4969787;28;20076;-63
2022/06/21 00:42:04;;;;;;;4.03;2.40;;;14.60;99.90;;;;;;4965125;28;20106;-63
2022/06/21 00:44:39;;;;;;;3.38;2.00;;;14.80;99.90;;;;;;4964891;28;20026;-65
2022/06/21 00:47:20;;;;;;;6.28;1.77;;;15.00;99.90;;;;;;4963560;28;20436;-65
2022/06/21 00:50:17;;;;;;;2.95;1.33;;;15.30;99.90;;;;;;4963587;28;20023;-65
2022/06/21 00:52:56;;;;;;;3.65;2.05;;;15.50;99.90;;;;;;4893846;29;20041;-65
2022/06/21 00:55:26;;;;;;;4.32;2.03;;;15.70;99.90;;;;;;4894494;29;20037;-64
2022/06/21 00:57:55;;;;;;;3.35;1.80;;;15.90;99.90;;;;;;4893276;29;20041;-64
2022/06/21 01:00:22;;;;;;;3.97;1.85;;;16.20;99.90;;;;;;4894347;29;20398;-66
2022/06/21 01:02:49;;;;;;;5.20;1.95;;;16.40;99.90;;;;;;4893846;29;20036;-65
2022/06/21 01:05:17;;;;;;;6.65;4.13;;;16.50;99.90;;;;;;4894621;29;20092;-65
2022/06/21 01:07:46;;;;;;;7.32;3.92;;;16.60;99.90;;;;;;4893753;29;20024;-63
2022/06/21 01:10:17;;;;;;;6.50;4.22;;;16.80;99.90;;;;;;4893724;29;20066;-63
2022/06/21 01:13:16;;;;;;;4.30;2.80;;;17.00;99.90;;;;;;4893307;29;20033;-65
2022/06/21 01:15:46;;;;;;;6.38;2.53;;;17.20;99.90;;;;;;4813237;29;20500;-63
2022/06/21 01:18:17;;;;;;;4.95;2.17;;;17.20;99.90;;;;;;4813158;29;20050;-62
2022/06/21 01:20:48;;;;;;;5.20;2.28;;;17.30;99.90;;;;;;4817261;29;20059;-64
2022/06/21 01:23:33;;;;;;;3.60;2.22;;;17.30;99.90;;;;;;4815146;29;20066;-64
2022/06/21 01:26:36;;;;;;;2.55;1.50;;;17.20;99.90;;;;;;4812515;29;20046;-64
2022/06/21 01:29:06;;;;;;;5.00;2.05;;;17.30;99.90;;;;;;4826753;29;20064;-66
2022/06/21 01:31:34;;;;;;;2.80;1.15;;;17.30;99.90;;;;;;4877498;29;20029;-65
2022/06/21 01:34:01;;;;;;;2.85;1.40;;;17.50;99.90;;;;;;4882728;29;20029;-63
2022/06/21 01:36:33;;;;;;;3.80;1.25;;;17.60;99.90;;;;;;4884785;29;20032;-63
2022/06/21 01:39:10;;;;;;;6.50;2.67;;;17.70;99.90;;;;;;4879308;29;20578;-65
2022/06/21 01:41:54;;;;;;;4.90;1.80;;;17.80;99.90;;;;;;4870579;29;20029;-64
2022/06/21 01:44:32;;;;;;;3.20;1.70;;;18.00;99.90;;;;;;4879746;29;20048;-63
2022/06/21 01:47:06;;;;;;;4.93;1.80;;;18.10;99.90;;;;;;4878535;29;20579;-66
2022/06/21 01:49:35;;;;;;;2.83;1.98;;;18.10;99.90;;;;;;4877871;29;20040;-65
2022/06/21 01:52:10;;;;;;;6.72;2.45;;;18.40;99.90;;;;;;4922032;28;20031;-66
2022/06/21 01:54:42;;;;;;;3.92;1.90;;;18.50;99.90;;;;;;4965413;28;20110;-65
2022/06/21 01:57:12;;;;;;;3.90;2.13;;;18.70;99.90;;;;;;4963201;28;20031;-63
2022/06/21 01:59:46;;;;;;;3.50;1.90;;;18.70;99.90;;;;;;4964894;28;20031;-63
2022/06/21 02:02:28;;;;;;;4.10;1.83;;;18.80;99.90;;;;;;4967982;28;20510;-63
2022/06/21 02:05:12;;;;;;;2.20;1.80;;;18.90;99.90;;;;;;4964835;28;20034;-63
2022/06/21 02:08:08;;;;;;;5.95;2.30;;;19.10;99.90;;;;;;4950206;28;20277;-64
2022/06/21 02:10:57;;;;;;;4.25;1.98;;;19.30;99.90;;;;;;4895996;29;20039;-62
2022/06/21 02:13:41;;;;;;;2.83;2.00;;;19.40;99.90;;;;;;4900813;29;20028;-62
2022/06/21 02:16:17;;;;;;;4.07;2.08;;;19.60;99.90;;;;;;4900005;29;20517;-65
2022/06/21 02:18:53;;;;;;;2.97;1.50;;;19.90;99.90;;;;;;4901278;29;20036;-62
2022/06/21 02:21:28;;;;;;;2.10;1.48;;;20.10;99.90;;;;;;4883921;29;20028;-63
2022/06/21 02:23:57;;;;;;;3.00;1.85;;;20.40;99.90;;;;;;4884192;29;20387;-65
2022/06/21 02:26:28;;;;;;;10.82;7.05;;;20.80;99.90;;;;;;4900781;29;20752;-62
2022/06/21 02:28:55;;;;;;;12.07;8.80;;;21.00;99.90;;;;;;4899430;29;20029;-62
2022/06/21 02:31:26;;;;;;;7.03;3.60;;;20.90;99.60;;;;;;4898341;29;20036;-64
2022/06/21 02:33:57;;;;;;;4.82;2.63;;;20.70;99.60;;;;;;4898231;29;20039;-62
2022/06/21 02:36:31;;;;;;;10.27;2.80;;;20.60;99.90;;;;;;4897189;29;20047;-63
2022/06/21 02:39:02;;;;;;;7.47;2.35;;;20.30;99.90;;;;;;4898332;29;20031;-65
2022/06/21 02:41:37;;;;;;;10.10;2.78;;;20.30;99.90;;;;;;4902216;29;20045;-64
2022/06/21 02:44:24;;;;;;;6.22;2.53;;;20.30;99.90;;;;;;4902549;29;20486;-62
2022/06/21 02:46:56;;;;;;;4.57;2.78;;;20.20;99.90;;;;;;4923806;28;20388;-65
2022/06/21 02:49:34;;;;;;;6.40;3.53;;;20.10;99.90;;;;;;4977704;28;21374;-62
2022/06/21 02:52:04;;;;;;;5.05;3.00;;;20.10;99.90;;;;;;4974639;28;20555;-63
2022/06/21 02:54:45;;;;;;;3.40;1.90;;;20.20;99.90;;;;;;4976835;28;20885;-63
2022/06/21 02:57:19;;;;;;;4.43;2.05;;;20.20;99.90;;;;;;4979792;28;20483;-62
2022/06/21 02:59:48;;;;;;;14.07;10.50;;;20.20;99.90;;;;;;4981933;28;20105;-64
2022/06/21 03:02:20;;;;;;;8.40;4.85;;;20.40;99.90;;;;;;4984842;28;20019;-62
2022/06/21 03:04:59;;;;;;;6.15;5.43;;;20.60;99.90;;;;;;4980783;28;20030;-66
2022/06/21 03:07:35;;;;;;;4.07;2.33;;;20.60;99.90;;;;;;4979573;28;20027;-64
2022/06/21 03:10:02;;;;;;;2.85;1.73;;;20.50;99.90;;;;;;4980499;28;20498;-65
2022/06/21 03:12:34;;;;;;;2.83;1.17;;;20.30;99.90;;;;;;4980819;28;20660;-65
2022/06/21 03:15:13;;;;;;;1.85;1.20;;;20.20;99.90;;;;;;4981688;28;20086;-63
2022/06/21 03:17:48;;;;;;;1.73;1.30;;;20.20;99.90;;;;;;4979540;28;20053;-62
2022/06/21 03:20:18;;;;;;;2.42;1.10;;;20.00;99.90;;;;;;4980345;28;20038;-64
2022/06/21 03:22:47;;;;;;;4.20;2.22;;;20.10;99.90;;;;;;4979648;28;20432;-64
2022/06/21 03:25:40;;;;;;;2.50;1.63;;;20.10;99.90;;;;;;4981022;28;20026;-66
2022/06/21 03:28:33;;;;;;;4.57;1.67;;;19.90;99.90;;;;;;4891604;29;20040;-65
2022/06/21 03:31:29;;;;;;;2.45;1.38;;;19.90;99.90;;;;;;4890998;29;20073;-64
2022/06/21 03:34:14;;;;;;;5.65;1.30;;;19.90;99.90;;;;;;4891643;29;20060;-64
2022/06/21 03:36:42;;;;;;;3.83;1.35;;;20.00;99.90;;;;;;4891626;29;20508;-64
2022/06/21 03:39:18;;;;;;;2.75;1.23;;;20.10;99.90;;;;;;4890873;29;20048;-64
2022/06/21 03:41:48;;;;;;;3.50;1.27;;;20.10;99.90;;;;;;4889617;29;20033;-67
2022/06/21 03:44:32;;;;;;;4.15;1.65;;;20.10;99.90;;;;;;4891077;29;20374;-65
2022/06/21 03:47:07;;;;;;;2.30;1.15;;;20.20;99.90;;;;;;4891516;29;20033;-64
2022/06/21 03:49:43;;;;;;;6.35;2.13;;;20.30;99.90;;;;;;4890441;29;20126;-64
2022/06/21 03:52:42;;;;;;;2.25;1.70;;;20.50;99.90;;;;;;4888873;29;20037;-66
2022/06/21 03:55:22;;;;;;;4.35;2.03;;;20.70;99.90;;;;;;4891483;29;20144;-66
2022/06/21 03:58:12;;;;;;;4.30;1.30;;;21.10;99.90;;;;;;4890343;29;20597;-66
2022/06/21 04:00:56;;;;;;;4.10;1.33;;;21.10;99.70;;;;;;4891908;29;20028;-62
2022/06/21 04:03:34;;;;;;;3.25;1.17;;;21.00;99.60;;;;;;4889092;29;20101;-65
2022/06/21 04:06:16;;;;;;;7.80;1.60;;;21.20;99.30;;;;;;4968818;28;20050;-62
2022/06/21 04:08:53;;;;;;;4.50;1.67;;;21.40;98.90;;;;;;4978604;28;20027;-66
2022/06/21 04:11:28;;;;;;;3.58;1.60;;;21.80;98.60;;;;;;4978836;28;20173;-63
2022/06/21 04:13:58;;;;;;;6.10;1.45;;;22.10;98.00;;;;;;4979997;28;20023;-63
2022/06/21 04:16:49;;;;;;;4.88;1.02;;;22.10;97.30;;;;;;4978933;28;20026;-62
2022/06/21 04:19:31;;;;;;;2.17;1.40;;;22.10;97.10;;;;;;4979157;28;20059;-67
2022/06/21 04:22:28;;;;;;;3.50;1.40;;;22.10;96.90;;;;;;4979644;28;20041;-65
2022/06/21 04:25:12;;;;;;;5.85;2.15;;;22.10;97.20;;;;;;4967951;28;20054;-64
2022/06/21 04:27:48;;;;;;;2.22;1.30;;;22.30;96.90;;;;;;4978298;28;20018;-66
2022/06/21 04:30:25;;;;;;;2.08;1.20;;;22.10;96.90;;;;;;4977392;28;20039;-64
2022/06/21 04:33:02;;;;;;;1.50;1.10;;;22.20;97.00;;;;;;4979193;28;20019;-65
2022/06/21 04:35:35;;;;;;;2.60;1.42;;;22.20;97.10;;;;;;4978750;28;20030;-66
2022/06/21 04:38:10;;;;;;;2.33;1.00;;;22.30;96.80;;;;;;4976857;28;20114;-67
2022/06/21 04:40:48;;;;;;;3.28;1.10;;;22.30;96.50;;;;;;4977774;28;20066;-68
2022/06/21 04:43:43;;;;;;;2.20;0.93;;;22.20;96.60;;;;;;4977973;28;20521;-69
2022/06/21 04:46:39;;;;;;;2.08;1.00;;;22.20;96.70;;;;;;4977847;28;20499;-67
2022/06/21 04:49:09;;;;;;;1.88;1.13;;;22.20;96.40;;;;;;4900352;29;20045;-67
2022/06/21 04:52:13;;;;;;;1.30;0.90;;;22.10;96.60;;;;;;4899885;29;20045;-67
2022/06/21 04:54:41;;;;;;;7.25;1.30;;;22.20;96.70;;;;;;4896991;29;20193;-65
2022/06/21 04:57:11;;;;;;;2.88;1.00;;;22.40;96.60;;;;;;4899573;29;20449;-66
2022/06/21 04:59:42;;;;;;;2.13;1.05;;;22.30;96.00;;;;;;4900031;29;20083;-67
2022/06/21 05:02:18;;;;;;;3.60;1.10;;;22.00;96.40;;;;;;4898758;29;20163;-67
2022/06/21 05:04:48;;;;;;;2.05;0.93;;;21.60;96.70;;;;;;4900464;29;20072;-65
2022/06/21 05:07:20;;;;;;;3.72;0.93;;;21.50;96.80;;;;;;4899199;29;20053;-66
2022/06/21 05:09:49;;;;;;;4.97;1.10;;;21.80;97.40;;;;;;4899166;29;20036;-66
2022/06/21 05:12:40;;;;;;;4.63;1.33;;;22.10;97.10;;;;;;4899777;29;20144;-67
2022/06/21 05:15:19;;;;;;;2.20;1.17;;;22.10;96.50;;;;;;4900904;29;20040;-67
2022/06/21 05:17:52;;;;;;;4.72;1.52;;;21.80;96.60;;;;;;4898202;29;20193;-66
2022/06/21 05:20:23;;;;;;;2.90;1.30;;;21.60;97.30;;;;;;4893198;29;20055;-66
2022/06/21 05:22:54;;;;;;;2.28;1.00;;;21.40;97.80;;;;;;4893516;29;20043;-67
2022/06/21 05:25:27;;;;;;;2.28;1.30;;;21.10;98.40;;;;;;4901422;28;20405;-68
2022/06/21 05:28:35;;;;;;;2.25;1.38;;;20.80;98.80;;;;;;4962237;28;20135;-67
2022/06/21 05:31:25;;;;;;;1.98;1.20;;;20.70;98.20;;;;;;5023557;23;20081;-67
2022/06/21 05:34:10;;;;;;;3.40;1.80;;;20.50;99.50;;;;;;4983420;28;20030;-67
2022/06/21 05:36:49;;;;;;;3.83;1.42;;;20.20;99.90;;;;;;4985359;28;20030;-68
2022/06/21 05:39:23;;;;;;;1.52;1.00;;;19.80;99.90;;;;;;4985409;28;20101;-67
2022/06/21 05:41:53;;;;;;;5.30;1.70;;;19.50;99.90;;;;;;4985853;28;20026;-68
2022/06/21 05:44:44;;;;;;;3.95;1.88;;;19.30;99.90;;;;;;4983197;28;20502;-65
2022/06/21 05:47:28;;;;;;;3.55;2.10;;;19.10;99.90;;;;;;4984001;28;20117;-66
2022/06/21 05:49:58;;;;;;;2.72;1.23;;;19.10;99.90;;;;;;4986838;28;20416;-66
2022/06/21 05:52:25;;;;;;;2.67;1.42;;;19.10;99.90;;;;;;4982169;28;20057;-67
2022/06/21 05:55:04;;;;;;;4.07;1.65;;;19.10;99.90;;;;;;4982675;28;20130;-65
2022/06/21 05:57:57;;;;;;;2.47;1.52;;;18.90;99.90;;;;;;4983847;28;20026;-66
2022/06/21 06:00:37;;;;;;;5.68;2.05;;;18.70;99.90;;;;;;4973514;28;20043;-65
2022/06/21 06:03:30;;;;;;;10.25;1.75;;;18.70;99.90;;;;;;4987623;28;20126;-65
2022/06/21 06:06:04;;;;;;;6.53;1.95;;;18.80;99.90;;;;;;4986119;28;20038;-65
2022/06/21 06:08:45;;;;;;;7.10;1.83;;;18.70;99.90;;;;;;4987099;28;20026;-65
2022/06/21 06:11:18;;;;;;;5.25;2.60;;;18.70;99.90;;;;;;4981933;28;20643;-66
2022/06/21 06:13:46;;;;;;;4.95;2.50;;;18.50;99.90;;;;;;4987310;28;20030;-65
2022/06/21 06:16:19;;;;;;;4.20;2.33;;;18.30;99.90;;;;;;4982652;28;20034;-65
2022/06/21 06:19:21;;;;;;;6.75;3.03;;;18.30;99.90;;;;;;4986668;28;20022;-65
2022/06/21 06:22:10;;;;;;;4.05;2.28;;;18.20;99.90;;;;;;4927438;29;20040;-65
2022/06/21 06:24:50;;;;;;;7.72;3.33;;;18.00;99.90;;;;;;4910062;29;20043;-63
2022/06/21 06:27:58;;;;;;;5.55;2.50;;;17.70;99.90;;;;;;4926570;29;20038;-64
2022/06/21 06:30:39;;;;;;;9.05;3.00;;;17.60;99.90;;;;;;4925465;29;20421;-66
2022/06/21 06:33:11;;;;;;;7.18;3.90;;;17.40;99.90;;;;;;4926292;29;20098;-67
2022/06/21 06:35:40;;;;;;;5.32;3.10;;;17.30;99.90;;;;;;4925065;29;20103;-65
2022/06/21 06:38:08;;;;;;;5.57;3.08;;;17.10;99.90;;;;;;4925928;29;20077;-65
2022/06/21 06:40:40;;;;;;;5.03;3.17;;;16.90;99.90;;;;;;4924887;29;20040;-65
2022/06/21 06:43:16;;;;;;;7.35;3.58;;;16.80;99.90;;;;;;4926681;29;20036;-67
2022/06/21 06:45:44;;;;;;;5.82;2.92;;;16.70;99.90;;;;;;4925730;29;20559;-67
2022/06/21 06:48:22;;;;;;;6.60;2.92;;;16.70;99.90;;;;;;4926611;29;20030;-67
2022/06/21 06:51:16;;;;;;;6.80;3.25;;;16.60;99.90;;;;;;4926564;29;20031;-67
2022/06/21 06:53:53;;;;;;;6.97;3.13;;;16.50;99.90;;;;;;4926611;29;20168;-67
2022/06/21 06:56:37;;;;;;;7.43;4.28;;;16.50;99.90;;;;;;4925578;29;20027;-67
2022/06/21 06:59:14;;;;;;;6.93;3.55;;;16.30;99.90;;;;;;4964413;28;20046;-66
2022/06/21 07:01:51;;;;;;;8.25;3.38;;;16.20;99.90;;;;;;4983984;28;20040;-68
2022/06/21 07:04:20;;;;;;;4.97;3.20;;;16.20;99.90;;;;;;4985670;28;20685;-68
2022/06/21 07:06:57;;;;;;;6.25;3.78;;;16.20;99.90;;;;;;4984767;28;20487;-67
2022/06/21 07:09:30;;;;;;;5.65;3.35;;;16.10;99.90;;;;;;4985255;28;20018;-67
2022/06/21 07:12:18;;;;;;;7.13;3.25;;;16.00;99.90;;;;;;4983789;28;20019;-67
2022/06/21 07:14:47;;;;;;;8.75;6.05;;;15.80;99.90;;;;;;4985617;28;20164;-66
2022/06/21 07:17:39;;;;;;;6.75;4.47;;;15.60;99.90;;;;;;4983183;28;20527;-67
2022/06/21 07:20:14;;;;;;;6.40;3.00;;;15.40;99.90;;;;;;4985167;28;20113;-66
2022/06/21 07:22:42;;;;;;;5.13;2.80;;;15.30;99.90;;;;;;4984744;28;20279;-67
2022/06/21 07:25:15;;;;;;;5.57;2.50;;;15.10;99.90;;;;;;4982854;28;20034;-68
2022/06/21 07:27:45;;;;;;;6.25;2.40;;;15.20;99.90;;;;;;4986132;28;20057;-65
2022/06/21 07:30:16;;;;;;;5.72;2.40;;;15.10;99.90;;;;;;4986170;28;20081;-62
2022/06/21 07:33:05;;;;;;;5.90;5.07;;;15.10;99.90;;;;;;4988063;28;20026;-65
2022/06/21 07:35:41;;;;;;;6.47;2.63;;;15.10;99.90;;;;;;4986763;28;20053;-67
2022/06/21 07:38:33;;;;;;;4.82;2.63;;;15.00;99.90;;;;;;4984495;28;20513;-65
2022/06/21 07:41:06;;;;;;;5.05;2.17;;;14.90;99.90;;;;;;4985795;28;20491;-65
2022/06/21 07:43:56;;;;;;;5.63;3.75;;;14.90;99.90;;;;;;4988344;28;20101;-65
2022/06/21 07:46:57;;;;;;;5.55;3.08;;;15.00;99.90;;;;;;4986000;28;20046;-65
2022/06/21 07:49:38;;;;;;;5.97;3.05;;;15.00;99.90;;;;;;4982775;28;20503;-65
2022/06/21 07:52:36;;;;;;;3.35;2.20;;;15.00;99.90;;;;;;4968912;28;20033;-63
2022/06/21 07:55:14;;;;;;;4.07;2.60;;;15.00;99.90;;;;;;4926151;29;20052;-67
2022/06/21 07:57:46;;;;;;;5.72;4.57;;;15.10;99.90;;;;;;4922222;29;20032;-67
2022/06/21 08:00:19;;;;;;;5.97;2.33;;;15.10;99.90;;;;;;4925823;29;20151;-62
2022/06/21 08:08:44;;;;;;;5.70;2.05;;;15.30;99.90;;;;;;4921106;29;20524;-66
2022/06/21 08:11:36;;;;;;;2.70;1.60;;;15.40;99.90;;;;;;4921461;29;20080;-65
2022/06/21 08:14:03;;;;;;;8.13;2.78;;;15.30;99.90;;;;;;4924206;29;20101;-68
2022/06/21 08:16:44;;;;;;;7.30;2.50;;;15.20;99.90;;;;;;4924565;29;20082;-66
2022/06/21 08:19:14;;;;;;;6.35;4.10;;;15.30;99.90;;;;;;4923359;29;20044;-70
2022/06/21 08:21:47;;;;;;;8.68;6.47;;;15.40;99.90;;;;;;4924195;29;20265;-74
2022/06/21 08:24:18;;;;;;;12.98;3.85;;;15.40;99.90;;;;;;4925927;29;20444;-67
2022/06/21 08:27:05;;;;;;;20.80;13.82;;;15.40;99.90;;;;;;4924067;29;20032;-66
2022/06/21 08:29:50;;;;;;;7.20;4.55;;;15.40;99.90;;;;;;4920516;29;20125;-68
2022/06/21 08:32:23;;;;;;;7.65;2.47;;;15.20;99.90;;;;;;4974328;28;20061;-69
2022/06/21 08:34:54;;;;;;;6.50;3.30;;;15.20;99.90;;;;;;4984417;28;20031;-68
2022/06/21 08:37:30;;;;;;;8.95;2.83;;;15.20;99.90;;;;;;4985718;28;20033;-69
2022/06/21 08:40:21;;;;;;;4.03;2.63;;;15.10;99.90;;;;;;4984446;28;20161;-67
2022/06/21 08:43:25;;;;;;;4.07;2.30;;;15.00;99.90;;;;;;4985157;28;20126;-69
2022/06/21 08:46:05;;;;;;;8.50;3.25;;;15.00;99.90;;;;;;4985109;28;20022;-68
2022/06/21 08:49:03;;;;;;;5.13;2.42;;;15.10;99.90;;;;;;4984384;28;20054;-67
2022/06/21 08:51:52;;;;;;;5.60;3.08;;;15.10;99.90;;;;;;4983927;28;20087;-65
2022/06/21 08:54:54;;;;;;;4.60;2.88;;;15.00;99.90;;;;;;4984765;28;20019;-67
2022/06/21 08:57:45;;;;;;;5.68;3.40;;;14.80;99.90;;;;;;4921661;29;20039;-63
2022/06/21 09:00:25;;;;;;;4.18;2.78;;;14.70;99.90;;;;;;4925150;29;20123;-66
2022/06/21 09:02:57;;;;;;;3.47;2.25;;;14.50;99.90;;;;;;4924662;29;20023;-66
2022/06/21 09:05:38;;;;;;;7.05;2.30;;;14.30;99.90;;;;;;4924389;29;20589;-68
2022/06/21 09:08:34;;;;;;;5.47;2.80;;;14.20;99.90;;;;;;4919663;29;20405;-68
2022/06/21 09:11:24;;;;;;;6.53;3.40;;;14.20;99.90;;;;;;4918661;29;20077;-66
2022/06/21 09:14:15;;;;;;;2.48;2.26;;;14.10;99.90;;;;;;4579003;29;10001219;-68
2022/06/21 09:16:51;;;;;;;4.50;3.10;;;14.00;99.90;;;;;;4920301;29;20016;-69
2022/06/21 09:19:18;;;;;;;3.95;2.35;;;13.70;99.90;;;;;;4901568;29;20070;-69
2022/06/21 09:22:03;;;;;;;3.90;2.85;;;13.40;99.90;;;;;;4916890;29;20444;-67
2022/06/21 09:25:00;;;;;;;5.72;3.45;;;13.30;99.90;;;;;;4914904;29;20675;-69
2022/06/21 09:27:49;;;;;;;4.57;2.80;;;13.20;99.90;;;;;;4842885;29;20052;-65
2022/06/21 09:30:26;;;;;;;4.57;2.65;;;13.10;99.90;;;;;;4836721;29;20049;-67
2022/06/21 09:33:16;;;;;;;5.38;2.90;;;12.90;99.90;;;;;;4857644;29;20048;-66
2022/06/21 09:36:14;;;;;;;5.43;3.22;;;12.90;99.90;;;;;;4881520;29;20540;-67
2022/06/21 09:38:56;;;;;;;5.55;3.05;;;12.80;99.90;;;;;;4820767;29;20149;-68
2022/06/21 09:41:50;;;;;;;4.53;3.15;;;12.60;99.90;;;;;;4817292;29;20033;-65
2022/06/21 09:44:56;;;;;;;5.72;2.97;;;12.60;99.90;;;;;;4818902;29;20047;-65
2022/06/21 09:47:37;;;;;;;4.95;2.83;;;12.40;99.90;;;;;;4822984;29;20045;-66
2022/06/21 09:50:22;;;;;;;6.18;4.05;;;12.20;99.90;;;;;;4821046;29;20759;-68
2022/06/21 09:52:56;;;;;;;7.38;4.30;;;12.10;99.90;;;;;;4829191;29;20672;-67
2022/06/21 09:55:35;;;;;;;7.15;4.95;;;12.20;99.90;;;;;;4819819;29;20038;-63
2022/06/21 09:58:26;;;;;;;6.03;4.25;;;12.40;99.90;;;;;;4817419;29;20083;-68
2022/06/21 10:01:05;;;;;;;7.18;4.53;;;12.40;99.90;;;;;;4821602;29;20054;-67
2022/06/21 10:03:59;;;;;;;5.78;4.85;;;12.30;99.90;;;;;;4824644;29;20133;-67
2022/06/21 10:06:43;;;;;;;9.50;7.63;;;12.20;99.90;;;;;;4882316;29;20036;-69
2022/06/21 10:09:38;;;;;;;9.10;7.63;;;12.20;99.90;;;;;;4882215;29;20045;-67
2022/06/21 10:12:21;;;;;;;6.95;5.53;;;12.20;99.90;;;;;;4882805;29;20032;-63
2022/06/21 10:15:11;;;;;;;10.18;5.18;;;12.10;99.90;;;;;;4891619;28;20035;-65
2022/06/21 10:18:22;;;;;;;7.85;5.15;;;12.00;99.90;;;;;;4959601;28;20034;-67
2022/06/21 10:21:17;;;;;;;5.55;4.30;;;11.90;99.90;;;;;;4960126;28;20031;-64
2022/06/21 10:24:12;;;;;;;7.88;4.13;;;11.80;99.90;;;;;;4960815;28;20395;-65
2022/06/21 10:26:45;;;;;;;5.63;4.35;;;11.90;99.90;;;;;;4959037;28;20031;-65
2022/06/21 10:29:33;;;;;;;5.97;3.45;;;11.90;99.90;;;;;;4962355;28;20558;-68
2022/06/21 10:32:10;;;;;;;4.40;3.85;;;11.80;99.90;;;;;;4979793;28;20379;-69
2022/06/21 10:34:40;;;;;;;5.57;3.53;;;11.70;99.90;;;;;;4979332;28;20394;-69
2022/06/21 10:37:16;;;;;;;5.40;3.50;;;11.80;99.90;;;;;;4977295;28;20113;-64
2022/06/21 10:39:46;;;;;;;5.75;4.10;;;11.80;99.90;;;;;;4980170;28;20026;-64
2022/06/21 10:42:46;;;;;;;7.35;4.47;;;11.70;99.90;;;;;;4979236;28;20037;-63
2022/06/21 10:45:50;;;;;;;6.63;4.40;;;11.60;99.90;;;;;;4979896;28;20034;-66
2022/06/21 10:48:35;;;;;;;9.73;6.80;;;11.60;99.90;;;;;;4974726;28;20593;-64
2022/06/21 10:51:22;;;;;;;5.53;4.50;;;11.50;99.90;;;;;;4973476;28;20037;-67
2022/06/21 10:54:01;;;;;;;7.07;5.78;;;11.50;99.90;;;;;;4978818;28;20026;-66
2022/06/21 11:02:44;;;;;;;5.90;3.92;;;11.60;99.90;;;;;;4979861;28;20037;-66
2022/06/21 11:05:14;;;;;;;4.70;3.45;;;11.90;99.90;;;;;;4979804;28;20092;-64
2022/06/21 11:08:04;;;;;;;5.80;3.35;;;11.90;99.90;;;;;;4981061;28;20057;-64
2022/06/21 11:10:43;;;;;;;4.10;3.03;;;11.90;99.90;;;;;;4980735;28;20092;-64
2022/06/21 11:13:14;;;;;;;6.53;3.38;;;11.90;99.90;;;;;;4982426;28;20080;-65
2022/06/21 11:16:02;;;;;;;5.22;3.35;;;11.70;99.90;;;;;;4978246;28;20069;-66
2022/06/21 11:18:31;;;;;;;5.18;3.20;;;11.60;99.90;;;;;;4976225;28;20465;-63
2022/06/21 11:21:15;;;;;;;6.72;5.22;;;11.50;99.90;;;;;;4977599;28;20626;-66
2022/06/21 11:24:00;;;;;;;8.45;4.63;;;11.40;99.90;;;;;;4962417;28;20423;-65
2022/06/21 11:26:45;;;;;;;6.05;3.78;;;11.30;99.90;;;;;;4982782;28;20030;-67
2022/06/21 11:29:44;;;;;;;6.70;3.97;;;11.10;99.90;;;;;;4964872;28;20035;-63
2022/06/21 11:32:39;;;;;;;8.52;4.25;;;11.10;99.90;;;;;;4984989;28;20085;-64
2022/06/21 11:35:42;;;;;;;11.77;9.05;;;11.10;99.90;;;;;;4980669;28;20481;-65
2022/06/21 11:38:32;;;;;;;;;;;10.80;99.90;;;;;;4982327;28;20027;-63
2022/06/21 11:44:35;;;;;;;7.82;4.38;;;10.60;99.90;;;;;;4981044;28;20045;-63
2022/06/21 11:47:11;;;;;;;18.17;14.82;;;10.50;99.90;;;;;;4983969;28;20114;-66
2022/06/21 11:50:05;;;;;;;8.32;6.22;;;10.30;99.90;;;;;;4983477;28;20059;-66
2022/06/21 11:52:50;;;;;;;9.07;4.30;;;10.30;99.90;;;;;;4982713;28;20031;-65
2022/06/21 11:55:25;;;;;;;5.95;4.22;;;10.50;99.90;;;;;;4981424;28;20510;-67
2022/06/21 11:58:27;;;;;;;7.13;4.40;;;10.60;99.90;;;;;;4987974;28;20034;-66
2022/06/21 12:00:54;;;;;;;8.77;5.30;;;10.50;99.90;;;;;;4964058;28;20026;-68
2022/06/21 12:03:30;;;;;;;8.55;4.35;;;10.40;99.90;;;;;;4987253;28;20034;-64
2022/06/21 12:06:36;;;;;;;4.80;3.78;;;10.40;99.90;;;;;;4987986;28;20028;-66
2022/06/21 12:09:19;;;;;;;6.22;4.00;;;10.40;99.90;;;;;;4922486;29;20151;-63
2022/06/21 12:12:07;;;;;;;6.57;3.80;;;10.20;99.90;;;;;;4923701;29;20035;-62
2022/06/21 12:14:49;;;;;;;6.43;5.15;;;10.10;99.90;;;;;;4922612;29;20485;-62
2022/06/21 12:17:25;;;;;;;6.93;4.95;;;10.10;99.90;;;;;;4924341;29;20051;-63
2022/06/21 12:20:02;;;;;;;4.88;3.55;;;10.00;99.90;;;;;;4922448;29;20035;-67
2022/06/21 12:22:57;;;;;;;4.43;3.58;;;10.00;99.90;;;;;;4922527;29;20043;-60
2022/06/21 12:25:25;;;;;;;4.72;3.70;;;9.90;99.90;;;;;;4924831;29;20031;-62
2022/06/21 12:27:53;;;;;;;8.45;4.30;;;9.80;99.90;;;;;;4919281;29;20024;-63
2022/06/21 12:30:27;;;;;;;5.55;3.60;;;9.90;99.90;;;;;;4919156;29;20513;-67
2022/06/21 12:33:03;;;;;;;6.53;3.88;;;9.90;99.90;;;;;;4920937;29;20038;-60
2022/06/21 12:35:55;;;;;;;5.88;4.38;;;9.90;99.90;;;;;;4922760;29;20024;-63
2022/06/21 12:38:32;;;;;;;6.32;3.88;;;9.90;99.90;;;;;;4921985;29;20107;-66
2022/06/21 12:41:29;;;;;;;5.88;3.40;;;9.80;99.90;;;;;;4918928;29;20032;-62
2022/06/21 12:44:24;;;;;;;6.88;3.70;;;9.70;99.90;;;;;;4960236;28;20047;-66
2022/06/21 12:47:08;;;;;;;4.28;3.80;;;9.80;99.90;;;;;;4964948;28;20034;-63
2022/06/21 12:49:41;;;;;;;4.03;3.35;;;9.90;99.90;;;;;;4961693;28;20550;-61
2022/06/21 12:52:29;;;;;;;5.72;2.88;;;10.10;99.90;;;;;;4963749;28;20039;-60
2022/06/21 12:54:56;;;;;;;4.22;3.05;;;10.20;99.90;;;;;;4959642;28;20027;-66
2022/06/21 12:57:36;;;;;;;3.97;2.65;;;10.30;99.90;;;;;;4964238;28;20019;-60
2022/06/21 13:00:33;;;;;;;2.67;1.88;;;10.40;99.90;;;;;;4963092;28;20027;-67
2022/06/21 13:03:29;;;;;;;2.38;1.70;;;10.40;99.90;;;;;;4964333;28;20275;-67
2022/06/21 13:06:32;;;;;;;3.85;1.98;;;10.50;99.90;;;;;;4928989;29;20146;-67
2022/06/21 13:09:16;;;;;;;2.30;1.75;;;10.60;99.90;;;;;;4929308;29;20023;-63
2022/06/21 13:11:51;;;;;;;2.20;1.88;;;10.60;99.90;;;;;;4929246;29;20027;-63
2022/06/21 13:14:33;;;;;;;2.00;1.50;;;10.70;99.90;;;;;;4928872;29;20023;-64
2022/06/21 13:17:36;;;;;;;3.05;1.20;;;10.80;99.90;;;;;;4928893;29;20028;-63
2022/06/21 13:20:20;;;;;;;3.75;1.70;;;11.00;99.90;;;;;;4863194;29;20102;-62
2022/06/21 13:23:12;;;;;;;2.85;1.40;;;11.00;99.90;;;;;;4869890;29;20419;-66
2022/06/21 13:26:49;;;;;;;2.13;1.30;;;11.10;99.90;;;;;;4859303;29;20104;-63
2022/06/21 13:29:36;;;;;;;1.75;1.30;;;11.20;99.90;;;;;;4792748;29;20650;-60
2022/06/21 13:32:08;;;;;;;3.60;0.95;;;11.10;99.90;;;;;;4793279;29;20476;-63
2022/06/21 13:34:41;;;;;;;1.23;1.00;;;11.10;99.90;;;;;;4799192;29;20042;-63
2022/06/21 13:37:31;;;;;;;2.70;1.52;;;11.00;99.90;;;;;;4798458;29;20042;-66
2022/06/21 13:40:17;;;;;;;2.85;1.25;;;10.90;99.90;;;;;;4800471;29;20075;-63
2022/06/21 13:43:08;;;;;;;1.70;1.13;;;10.70;99.90;;;;;;4807462;29;20038;-61
2022/06/21 13:45:50;;;;;;;0.95;0.95;;;10.60;99.90;;;;;;4814521;29;20042;-63
2022/06/21 13:48:25;;;;;;;1.55;1.15;;;10.50;99.90;;;;;;4816034;29;20060;-64
2022/06/21 13:51:09;;;;;;;2.80;1.42;;;10.40;99.90;;;;;;4816304;29;20057;-66
2022/06/21 13:53:39;;;;;;;2.33;1.30;;;10.60;99.90;;;;;;4838605;29;20040;-61
2022/06/21 13:56:27;;;;;;;2.00;1.50;;;10.70;99.90;;;;;;4889751;29;20069;-64
2022/06/21 13:59:26;;;;;;;1.92;1.50;;;10.80;99.90;;;;;;4882788;29;20041;-67
2022/06/21 14:02:04;;;;;;;2.25;1.30;;;10.60;99.90;;;;;;4829319;29;20066;-66
2022/06/21 14:04:55;;;;;;;3.05;2.50;;;10.60;99.90;;;;;;4868780;29;20186;-66
2022/06/21 14:07:40;;;;;;;1.77;1.33;;;10.50;99.90;;;;;;4871191;29;20037;-66
2022/06/21 14:10:19;;;;;;;3.95;2.13;;;10.30;99.90;;;;;;4870477;29;20303;-63
2022/06/21 14:13:05;;;;;;;1.42;1.33;;;10.30;99.90;;;;;;4871467;29;20425;-61